Time;durP1;ratioP1;P1;durP2;ratioP2;P2;SDS_P1;SDS_P2;PMS_P1;PMS_P2;Temp;Humidity;BMP_temperature;BMP_pressure;BME280_temperature;BME280_humidity;BME280_pressure;Samples;Min_cycle;Max_cycle;Signal;HPM_P1;HPM_P2
2021/10/17 00:00:15;;;;;;;143.40;98.70;;;;;;;4.26;93.16;99525.33;112702;1190;62894;-82
2021/10/17 00:03:02;;;;;;;147.40;96.40;;;;;;;4.24;93.09;99521.51;112585;1193;61008;-83
2021/10/17 00:05:31;;;;;;;126.40;93.40;;;;;;;4.23;93.28;99525.96;112555;1192;60999;-82
2021/10/17 00:07:58;;;;;;;126.00;90.50;;;;;;;4.23;93.39;99526.48;112679;1190;65908;-82
2021/10/17 00:10:30;;;;;;;123.20;87.60;;;;;;;4.24;93.44;99526.45;112686;1190;61052;-82
2021/10/17 00:12:59;;;;;;;122.50;83.40;;;;;;;4.21;93.34;99529.02;112704;1190;64025;-82
2021/10/17 00:15:29;;;;;;;116.50;85.80;;;;;;;4.14;93.50;99533.11;112702;1190;61145;-82
2021/10/17 00:17:57;;;;;;;118.30;84.50;;;;;;;4.08;93.59;99528.39;112571;1190;61066;-82
2021/10/17 00:20:25;;;;;;;112.60;80.70;;;;;;;4.06;93.56;99523.35;112688;1190;67041;-82
2021/10/17 00:22:53;;;;;;;106.90;80.20;;;;;;;4.04;93.50;99526.04;112668;1190;61054;-83
2021/10/17 00:25:21;;;;;;;108.30;78.10;;;;;;;3.99;93.47;99522.85;112576;1192;62668;-84
2021/10/17 00:27:48;;;;;;;113.20;81.40;;;;;;;3.94;93.58;99525.31;112588;1190;60931;-85
2021/10/17 00:30:15;;;;;;;121.70;82.90;;;;;;;3.87;93.59;99528.31;112635;1190;60991;-84
2021/10/17 00:32:42;;;;;;;108.00;79.60;;;;;;;3.82;93.66;99529.02;112516;1190;66933;-84
2021/10/17 00:35:10;;;;;;;114.90;80.10;;;;;;;3.78;93.83;99526.31;112607;1184;60997;-85
2021/10/17 00:37:37;;;;;;;107.80;77.90;;;;;;;3.75;93.84;99522.91;112659;1185;64987;-85
2021/10/17 00:40:08;;;;;;;111.20;80.60;;;;;;;3.70;93.81;99522.52;112635;1190;61065;-83
2021/10/17 00:42:35;;;;;;;112.90;77.90;;;;;;;3.61;93.63;99522.83;112685;1190;60972;-83
2021/10/17 00:45:07;;;;;;;105.70;75.40;;;;;;;3.52;93.64;99523.94;112657;1190;64666;-83
2021/10/17 00:47:34;;;;;;;110.60;77.50;;;;;;;3.45;93.46;99521.15;112552;1193;61103;-83
2021/10/17 00:50:01;;;;;;;110.00;80.80;;;;;;;3.37;93.38;99521.75;112600;1190;64847;-83
2021/10/17 00:52:27;;;;;;;107.80;79.60;;;;;;;3.28;93.43;99521.83;112611;1190;60946;-82
2021/10/17 00:54:54;;;;;;;116.70;79.60;;;;;;;3.25;93.66;99522.10;112659;1190;61029;-82
2021/10/17 00:57:21;;;;;;;109.10;76.30;;;;;;;3.21;93.74;99519.91;112633;1190;66000;-83
2021/10/17 00:59:49;;;;;;;107.10;75.70;;;;;;;3.16;93.70;99521.68;112660;1190;60997;-83
2021/10/17 01:02:15;;;;;;;101.20;72.30;;;;;;;3.13;93.74;99521.39;112599;1190;63995;-82
2021/10/17 01:04:42;;;;;;;106.40;75.20;;;;;;;3.09;93.75;99522.54;112607;1190;61051;-83
2021/10/17 01:07:10;;;;;;;103.10;72.80;;;;;;;3.07;93.80;99521.53;112594;1190;61044;-85
2021/10/17 01:09:38;;;;;;;98.00;69.40;;;;;;;3.04;93.75;99519.70;112636;1190;65664;-84
2021/10/17 01:12:06;;;;;;;90.60;66.90;;;;;;;3.03;93.71;99521.48;112644;1190;61057;-82
2021/10/17 01:14:33;;;;;;;103.00;71.10;;;;;;;2.99;93.54;99521.43;112686;1190;63661;-83
2021/10/17 01:17:01;;;;;;;107.20;74.70;;;;;;;2.97;93.67;99522.01;112558;1193;61061;-82
2021/10/17 01:19:28;;;;;;;101.60;72.40;;;;;;;2.99;93.83;99521.42;112680;1190;61748;-82
2021/10/17 01:21:55;;;;;;;105.30;70.00;;;;;;;3.01;93.91;99520.83;112644;1190;64641;-82
2021/10/17 01:24:21;;;;;;;100.90;70.80;;;;;;;3.02;93.95;99522.91;112689;1190;61028;-82
2021/10/17 01:26:48;;;;;;;99.30;67.10;;;;;;;3.03;93.95;99517.81;112665;1190;64092;-82
2021/10/17 01:29:15;;;;;;;101.70;68.10;;;;;;;3.03;93.91;99516.58;112656;1190;61052;-83
2021/10/17 01:31:42;;;;;;;93.00;66.20;;;;;;;3.05;94.08;99517.58;112717;1190;60947;-82
2021/10/17 01:34:08;;;;;;;94.10;66.10;;;;;;;3.11;94.23;99514.94;112663;1190;65973;-83
2021/10/17 01:36:38;;;;;;;93.30;67.40;;;;;;;3.17;94.35;99516.36;112654;1190;61024;-84
2021/10/17 01:39:07;;;;;;;91.10;62.90;;;;;;;3.20;94.30;99514.16;112715;1190;64043;-83
2021/10/17 01:41:35;;;;;;;92.10;64.90;;;;;;;3.21;94.19;99511.50;112712;1190;60969;-84
2021/10/17 01:44:08;;;;;;;91.40;63.90;;;;;;;3.20;94.18;99508.55;112673;1184;61071;-84
2021/10/17 01:46:35;;;;;;;89.80;62.50;;;;;;;3.21;94.22;99504.84;112671;1190;66136;-84
2021/10/17 01:49:07;;;;;;;86.90;62.50;;;;;;;3.23;94.27;99505.81;112675;1190;61036;-82
2021/10/17 01:51:34;;;;;;;88.70;63.40;;;;;;;3.23;94.30;99502.65;112684;1190;64007;-83
2021/10/17 01:54:03;;;;;;;85.70;59.90;;;;;;;3.23;94.31;99502.15;112591;1190;61010;-82
2021/10/17 01:56:35;;;;;;;87.50;65.90;;;;;;;3.22;94.28;99501.30;112684;1190;60996;-82
2021/10/17 01:59:02;;;;;;;84.20;62.30;;;;;;;3.21;94.31;99499.73;112659;1190;64685;-83
2021/10/17 02:01:29;;;;;;;86.50;60.70;;;;;;;3.20;94.35;99498.89;112593;1190;61161;-83
2021/10/17 02:03:59;;;;;;;92.40;64.50;;;;;;;3.19;94.38;99500.51;112614;1190;63657;-82
2021/10/17 02:06:27;;;;;;;97.30;67.90;;;;;;;3.20;94.43;99505.73;112639;1190;61000;-83
2021/10/17 02:08:56;;;;;;;89.10;61.40;;;;;;;3.23;94.53;99501.61;112641;1190;61058;-82
2021/10/17 02:11:22;;;;;;;88.00;60.90;;;;;;;3.27;94.79;99500.95;112678;1190;66017;-82
2021/10/17 02:13:49;;;;;;;84.70;59.20;;;;;;;3.29;94.74;99498.63;112707;1190;60972;-83
2021/10/17 02:16:16;;;;;;;83.10;59.30;;;;;;;3.31;94.66;99499.27;112637;1190;62963;-82
2021/10/17 02:18:42;;;;;;;77.50;57.60;;;;;;;3.30;94.64;99498.75;112642;1190;61061;-82
2021/10/17 02:21:09;;;;;;;77.90;56.10;;;;;;;3.33;94.79;99500.80;112610;1177;61131;-81
2021/10/17 02:23:36;;;;;;;79.10;52.80;;;;;;;3.34;94.78;99500.59;112657;1190;64413;-82
2021/10/17 02:26:03;;;;;;;72.10;51.30;;;;;;;3.36;94.81;99497.20;112730;1190;61055;-82
2021/10/17 02:28:30;;;;;;;70.40;52.90;;;;;;;3.37;94.93;99497.17;112721;1190;63813;-82
2021/10/17 02:30:57;;;;;;;76.50;51.50;;;;;;;3.39;94.98;99495.52;112653;1190;61047;-82
2021/10/17 02:33:24;;;;;;;73.60;52.40;;;;;;;3.40;94.99;99487.94;112715;1190;61043;-83
2021/10/17 02:35:51;;;;;;;75.80;54.00;;;;;;;3.38;94.94;99485.36;112681;1190;64650;-82
2021/10/17 02:38:18;;;;;;;70.00;51.60;;;;;;;3.36;94.85;99487.00;112625;1185;60997;-82
2021/10/17 02:40:44;;;;;;;77.80;53.30;;;;;;;3.35;94.89;99486.52;112588;1180;63784;-82
2021/10/17 02:43:11;;;;;;;72.20;53.10;;;;;;;3.35;94.93;99482.11;112615;1190;61049;-83
2021/10/17 02:45:38;;;;;;;77.90;52.40;;;;;;;3.35;94.99;99480.55;112657;1190;61164;-82
2021/10/17 02:48:05;;;;;;;71.80;51.60;;;;;;;3.35;95.03;99482.48;112645;1190;64755;-82
2021/10/17 02:50:32;;;;;;;71.60;52.20;;;;;;;3.35;95.07;99484.42;112662;1190;61036;-82
2021/10/17 02:52:59;;;;;;;75.50;53.90;;;;;;;3.35;95.16;99480.19;112638;1190;63615;-82
2021/10/17 02:55:26;;;;;;;74.90;53.20;;;;;;;3.34;95.12;99479.86;112676;1190;61001;-82
2021/10/17 02:57:52;;;;;;;70.80;51.90;;;;;;;3.34;95.13;99480.05;112676;1190;60982;-82
2021/10/17 03:00:19;;;;;;;70.70;51.90;;;;;;;3.34;95.20;99476.52;112695;1190;67079;-82
2021/10/17 03:02:46;;;;;;;73.10;51.90;;;;;;;3.31;95.13;99478.71;112754;1190;60972;-82
2021/10/17 03:05:12;;;;;;;73.70;52.00;;;;;;;3.29;95.14;99478.42;112681;1190;64065;-82
2021/10/17 03:07:39;;;;;;;71.30;50.20;;;;;;;3.27;95.17;99481.66;112709;1190;61506;-84
2021/10/17 03:10:07;;;;;;;67.30;49.10;;;;;;;3.26;95.19;99483.61;112648;1190;61023;-84
2021/10/17 03:12:35;;;;;;;70.90;51.60;;;;;;;3.26;95.29;99485.02;112690;1190;66004;-84
2021/10/17 03:15:04;;;;;;;67.80;49.50;;;;;;;3.24;95.27;99478.75;112597;1191;61088;-82
2021/10/17 03:17:30;;;;;;;69.10;48.70;;;;;;;3.24;95.35;99481.55;112685;1190;62954;-82
2021/10/17 03:19:57;;;;;;;71.80;48.80;;;;;;;3.25;95.46;99476.63;112719;1190;61026;-82
2021/10/17 03:22:24;;;;;;;71.80;52.40;;;;;;;3.25;95.43;99478.36;112698;1190;61024;-81
2021/10/17 03:24:50;;;;;;;75.90;56.60;;;;;;;3.23;95.30;99480.19;112647;1190;64767;-81
2021/10/17 03:27:17;;;;;;;77.70;52.90;;;;;;;3.18;95.27;99481.57;112701;1190;61478;-82
2021/10/17 03:29:43;;;;;;;73.90;53.20;;;;;;;3.15;95.40;99479.54;112691;1190;63673;-82
2021/10/17 03:32:10;;;;;;;73.70;52.60;;;;;;;3.14;95.46;99480.97;112619;1190;60997;-82
2021/10/17 03:34:37;;;;;;;78.20;54.90;;;;;;;3.13;95.49;99480.48;112686;1190;61045;-81
2021/10/17 03:37:03;;;;;;;80.10;55.40;;;;;;;3.09;95.35;99477.25;112637;1190;67028;-82
2021/10/17 03:39:30;;;;;;;73.90;52.50;;;;;;;3.08;95.46;99480.62;112677;1190;61119;-82
2021/10/17 03:41:56;;;;;;;78.60;54.00;;;;;;;3.05;95.31;99481.92;112676;1190;63640;-82
2021/10/17 03:44:23;;;;;;;78.10;56.20;;;;;;;3.02;95.29;99479.90;112674;1190;61066;-81
2021/10/17 03:46:50;;;;;;;77.10;54.50;;;;;;;2.99;95.22;99482.29;112687;1190;61107;-82
2021/10/17 03:49:16;;;;;;;79.60;55.00;;;;;;;2.96;95.25;99478.85;112686;1190;66057;-82
2021/10/17 03:51:43;;;;;;;76.00;53.70;;;;;;;2.94;95.24;99475.92;112689;1190;60954;-82
2021/10/17 03:54:10;;;;;;;75.40;51.70;;;;;;;2.89;95.12;99477.11;112626;1190;63782;-83
2021/10/17 03:56:36;;;;;;;71.40;49.50;;;;;;;2.83;95.06;99481.84;112676;1190;60940;-82
2021/10/17 03:59:03;;;;;;;80.20;51.00;;;;;;;2.78;95.18;99485.67;112735;1190;61049;-83
2021/10/17 04:01:30;;;;;;;85.00;58.10;;;;;;;2.75;95.32;99485.58;112635;1190;64647;-81
2021/10/17 04:03:56;;;;;;;86.70;59.50;;;;;;;2.77;95.49;99479.38;112617;1190;60966;-83
2021/10/17 04:06:23;;;;;;;80.60;57.20;;;;;;;2.80;95.46;99478.77;112617;1190;64109;-85
2021/10/17 04:08:50;;;;;;;76.70;54.60;;;;;;;2.80;95.39;99475.45;112602;1191;61029;-84
2021/10/17 04:11:16;;;;;;;75.50;53.30;;;;;;;2.78;95.27;99473.56;112665;1190;61046;-83
2021/10/17 04:13:43;;;;;;;82.10;55.20;;;;;;;2.73;95.05;99474.23;112565;1190;64366;-85
2021/10/17 04:16:10;;;;;;;85.40;59.00;;;;;;;2.66;95.07;99470.03;112668;1190;61052;-84
2021/10/17 04:18:37;;;;;;;79.20;57.30;;;;;;;2.64;95.22;99470.09;112668;1190;62630;-83
2021/10/17 04:21:04;;;;;;;76.90;53.00;;;;;;;2.60;95.11;99470.88;112717;1190;61072;-84
2021/10/17 04:23:30;;;;;;;85.50;59.40;;;;;;;2.56;95.14;99472.58;112688;1190;61020;-83
2021/10/17 04:25:57;;;;;;;88.10;59.10;;;;;;;2.55;95.24;99473.32;112640;1190;64723;-83
2021/10/17 04:28:24;;;;;;;86.50;57.20;;;;;;;2.53;95.19;99469.52;112724;1190;60998;-82
2021/10/17 04:30:50;;;;;;;80.20;56.10;;;;;;;2.48;94.99;99473.48;112713;1190;63637;-83
2021/10/17 04:33:17;;;;;;;76.00;54.90;;;;;;;2.41;94.93;99472.28;112642;1190;61051;-82
2021/10/17 04:35:44;;;;;;;81.80;54.70;;;;;;;2.37;95.03;99473.27;112636;1190;61046;-82
2021/10/17 04:38:13;;;;;;;83.10;57.40;;;;;;;2.34;95.12;99472.64;112683;1190;65998;-82
2021/10/17 04:40:41;;;;;;;79.40;55.50;;;;;;;2.33;95.14;99473.18;112668;1190;61008;-83
2021/10/17 04:43:10;;;;;;;76.10;54.40;;;;;;;2.28;94.93;99476.81;112564;1193;64014;-83
2021/10/17 04:45:37;;;;;;;92.50;64.90;;;;;;;2.26;95.18;99479.52;112677;1190;61742;-82
2021/10/17 04:48:05;;;;;;;86.60;61.70;;;;;;;2.31;95.44;99479.38;112594;1190;61020;-83
2021/10/17 04:50:32;;;;;;;89.70;63.20;;;;;;;2.33;95.42;99479.13;112700;1190;65995;-82
2021/10/17 04:52:59;;;;;;;81.20;58.50;;;;;;;2.32;95.27;99482.48;112681;1190;61046;-81
2021/10/17 04:55:25;;;;;;;97.20;70.80;;;;;;;2.28;95.11;99478.75;112641;1190;63752;-82
2021/10/17 04:57:52;;;;;;;97.50;72.00;;;;;;;2.28;95.34;99480.66;112656;1180;61023;-83
2021/10/17 05:00:19;;;;;;;91.60;66.70;;;;;;;2.30;95.32;99486.42;112606;1190;61052;-83
2021/10/17 05:02:45;;;;;;;91.70;65.40;;;;;;;2.31;95.23;99485.86;112657;1190;64931;-83
2021/10/17 05:05:12;;;;;;;93.10;67.80;;;;;;;2.31;95.19;99486.20;112602;1192;61640;-85
2021/10/17 05:07:39;;;;;;;102.30;71.90;;;;;;;2.32;95.16;99484.61;112517;1190;62924;-85
2021/10/17 05:10:06;;;;;;;92.90;70.90;;;;;;;2.32;95.18;99485.30;112551;1190;61065;-85
2021/10/17 05:12:33;;;;;;;102.60;68.50;;;;;;;2.35;95.26;99485.77;112587;1190;61064;-84
2021/10/17 05:14:59;;;;;;;99.20;71.30;;;;;;;2.37;95.25;99487.64;112690;1190;65850;-82
2021/10/17 05:17:26;;;;;;;94.10;69.20;;;;;;;2.41;95.25;99488.59;112648;1190;61062;-82
2021/10/17 05:19:52;;;;;;;97.80;72.60;;;;;;;2.45;95.27;99487.79;112509;1190;62797;-82
2021/10/17 05:22:19;;;;;;;97.00;71.30;;;;;;;2.50;95.35;99492.56;112506;1190;61058;-84
2021/10/17 05:24:46;;;;;;;107.30;79.30;;;;;;;2.56;95.31;99495.03;112572;1190;61084;-84
2021/10/17 05:27:12;;;;;;;114.20;80.00;;;;;;;2.59;95.11;99498.13;112656;1190;66949;-86
2021/10/17 05:29:39;;;;;;;115.30;82.00;;;;;;;2.65;95.14;99503.40;112649;1190;61058;-86
2021/10/17 05:32:06;;;;;;;116.10;83.40;;;;;;;2.73;95.31;99501.42;112621;1190;62742;-84
2021/10/17 05:34:32;;;;;;;105.70;83.70;;;;;;;2.81;95.25;99508.21;112654;1190;60947;-84
2021/10/17 05:36:59;;;;;;;122.60;87.50;;;;;;;2.86;95.14;99508.80;112594;1190;61011;-83
2021/10/17 05:39:26;;;;;;;110.50;82.80;;;;;;;2.93;95.28;99513.49;112588;1190;66073;-82
2021/10/17 05:41:52;;;;;;;100.80;78.10;;;;;;;3.00;95.23;99518.93;112569;1190;61059;-83
2021/10/17 05:44:19;;;;;;;103.90;78.50;;;;;;;3.05;95.18;99522.14;112528;1190;62653;-82
2021/10/17 05:46:45;;;;;;;119.40;85.70;;;;;;;3.12;95.22;99525.08;112565;1190;60981;-84
2021/10/17 05:49:12;;;;;;;120.40;88.10;;;;;;;3.20;95.23;99526.09;112628;1190;61047;-81
2021/10/17 05:51:38;;;;;;;121.60;83.30;;;;;;;3.26;95.15;99524.52;112679;1190;66609;-83
2021/10/17 05:54:05;;;;;;;116.00;82.60;;;;;;;3.31;95.09;99524.23;112584;1190;61020;-83
2021/10/17 05:56:32;;;;;;;108.60;80.40;;;;;;;3.34;95.09;99528.16;112547;1183;65018;-83
2021/10/17 05:58:58;;;;;;;114.10;80.20;;;;;;;3.39;95.14;99526.61;112636;1190;61055;-83
2021/10/17 06:01:25;;;;;;;111.50;81.50;;;;;;;3.47;95.22;99525.85;112577;1190;61053;-83
2021/10/17 06:03:51;;;;;;;116.60;87.70;;;;;;;3.56;95.25;99526.47;112643;1190;66717;-83
2021/10/17 06:06:18;;;;;;;111.50;83.40;;;;;;;3.68;95.31;99522.77;112732;1190;61023;-83
2021/10/17 06:08:46;;;;;;;104.10;82.20;;;;;;;3.81;95.21;99524.11;112677;1190;62346;-83
2021/10/17 06:11:13;;;;;;;101.40;82.50;;;;;;;3.89;95.02;99522.45;112644;1190;61059;-83
2021/10/17 06:13:40;;;;;;;104.20;81.60;;;;;;;3.96;94.92;99525.41;112633;1190;60940;-83
2021/10/17 06:16:07;;;;;;;104.60;83.10;;;;;;;4.03;94.87;99526.41;112721;1187;66620;-83
2021/10/17 06:18:34;;;;;;;107.30;84.60;;;;;;;4.10;94.86;99530.06;112665;1190;60979;-83
2021/10/17 06:21:02;;;;;;;100.40;77.30;;;;;;;4.20;94.83;99529.92;112657;1190;62673;-83
2021/10/17 06:23:28;;;;;;;102.20;78.30;;;;;;;4.29;94.79;99529.30;112695;1190;60958;-83
2021/10/17 06:25:55;;;;;;;100.10;77.90;;;;;;;4.39;94.77;99528.95;112686;1190;61007;-84
2021/10/17 06:28:22;;;;;;;103.60;79.50;;;;;;;4.52;94.83;99529.56;112657;1190;64609;-83
2021/10/17 06:30:49;;;;;;;95.20;72.50;;;;;;;4.67;94.74;99526.77;112653;1190;61071;-83
2021/10/17 06:33:15;;;;;;;87.40;68.00;;;;;;;4.80;94.59;99528.09;112708;1190;62606;-83
2021/10/17 06:35:42;;;;;;;83.30;62.40;;;;;;;4.92;94.46;99528.19;112692;1190;61058;-84
2021/10/17 06:38:09;;;;;;;83.60;63.50;;;;;;;5.01;94.18;99531.20;112683;1190;61038;-84
2021/10/17 06:40:36;;;;;;;81.70;65.30;;;;;;;5.12;94.13;99530.81;112653;1190;66136;-83
2021/10/17 06:43:03;;;;;;;81.90;63.80;;;;;;;5.21;93.79;99532.63;112648;1190;61055;-84
2021/10/17 06:45:30;;;;;;;86.60;65.10;;;;;;;5.29;93.72;99530.73;112665;1190;63952;-83
2021/10/17 06:47:56;;;;;;;73.80;56.60;;;;;;;5.41;93.75;99530.11;112681;1190;61086;-83
2021/10/17 06:50:23;;;;;;;71.40;54.70;;;;;;;5.51;93.47;99532.37;112678;1190;61017;-83
2021/10/17 06:52:51;;;;;;;71.70;52.90;;;;;;;5.60;93.06;99531.86;112679;1190;66133;-84
2021/10/17 06:55:17;;;;;;;67.80;54.90;;;;;;;5.68;92.75;99530.70;112650;1190;61239;-85
2021/10/17 06:57:45;;;;;;;72.20;57.80;;;;;;;5.78;92.81;99530.30;112616;1190;64329;-84
2021/10/17 07:00:14;;;;;;;71.60;55.50;;;;;;;5.91;92.82;99528.75;112666;1190;61026;-84
2021/10/17 07:02:40;;;;;;;65.90;52.80;;;;;;;6.01;92.60;99535.95;112653;1190;61024;-86
2021/10/17 07:05:07;;;;;;;58.10;47.10;;;;;;;6.13;92.42;99537.96;112694;1190;66139;-86
2021/10/17 07:07:34;;;;;;;58.70;44.10;;;;;;;6.25;92.14;99540.31;112684;1190;61055;-86
2021/10/17 07:10:01;;;;;;;57.30;43.20;;;;;;;6.32;91.77;99542.46;112565;1192;62609;-84
2021/10/17 07:12:28;;;;;;;54.20;42.50;;;;;;;6.43;91.71;99545.94;112657;1190;61036;-85
2021/10/17 07:14:55;;;;;;;52.50;41.40;;;;;;;6.53;91.50;99542.66;112661;1190;61058;-83
2021/10/17 07:17:21;;;;;;;50.60;40.40;;;;;;;6.60;91.04;99537.95;112586;1190;66007;-84
2021/10/17 07:19:48;;;;;;;49.50;39.00;;;;;;;6.63;90.80;99541.73;112470;1190;61067;-83
2021/10/17 07:22:15;;;;;;;54.60;42.60;;;;;;;6.72;90.74;99542.59;112582;1190;62647;-83
2021/10/17 07:24:42;;;;;;;52.60;40.00;;;;;;;6.81;90.61;99539.73;112550;1190;60953;-84
2021/10/17 07:27:09;;;;;;;52.50;42.00;;;;;;;6.91;90.31;99540.87;112552;1190;61052;-84
2021/10/17 07:29:36;;;;;;;54.80;44.40;;;;;;;7.02;90.15;99540.22;112602;1190;66056;-84
2021/10/17 07:32:03;;;;;;;54.40;43.50;;;;;;;7.13;89.84;99540.45;112638;1190;61087;-84
2021/10/17 07:34:30;;;;;;;54.70;43.50;;;;;;;7.19;89.51;99542.65;112675;1190;64116;-84
2021/10/17 07:36:56;;;;;;;53.50;43.50;;;;;;;7.30;89.51;99541.66;112795;1190;60982;-82
2021/10/17 07:39:23;;;;;;;53.30;42.10;;;;;;;7.46;89.47;99541.80;112618;1190;61034;-82
2021/10/17 07:41:50;;;;;;;59.80;43.70;;;;;;;7.61;89.06;99543.95;112611;1190;64745;-85
2021/10/17 07:44:17;;;;;;;51.70;40.60;;;;;;;7.70;88.61;99541.40;112724;1190;66985;-84
2021/10/17 07:46:44;;;;;;;58.50;44.40;;;;;;;7.78;88.46;99537.14;112621;1192;63959;-83
2021/10/17 07:49:11;;;;;;;51.20;41.20;;;;;;;7.98;88.58;99536.22;112633;1190;60943;-85
2021/10/17 07:51:37;;;;;;;52.70;42.20;;;;;;;8.20;88.34;99535.88;112658;1190;61023;-85
2021/10/17 07:54:04;;;;;;;57.10;45.10;;;;;;;8.33;87.85;99533.98;112705;1190;64644;-83
2021/10/17 07:56:31;;;;;;;57.70;44.10;;;;;;;8.48;87.58;99535.22;112594;1190;61100;-85
2021/10/17 07:58:58;;;;;;;50.80;41.60;;;;;;;8.65;87.23;99534.73;112666;1190;62638;-83
2021/10/17 08:01:25;;;;;;;52.30;41.60;;;;;;;8.81;86.93;99532.55;112749;1190;61046;-82
2021/10/17 08:03:52;;;;;;;52.70;42.70;;;;;;;8.86;85.99;99531.74;112606;1190;61149;-82
2021/10/17 08:06:18;;;;;;;49.70;41.20;;;;;;;8.87;85.92;99532.39;112682;1190;66035;-84
2021/10/17 08:08:45;;;;;;;54.60;43.00;;;;;;;8.95;85.88;99530.89;112564;1190;61037;-85
2021/10/17 08:11:12;;;;;;;50.30;42.10;;;;;;;9.08;85.79;99536.42;112681;1190;64018;-84
2021/10/17 08:13:40;;;;;;;55.00;42.90;;;;;;;9.17;85.43;99536.34;112673;1190;61084;-85
2021/10/17 08:16:07;;;;;;;54.60;43.30;;;;;;;9.23;85.10;99534.23;113101;1190;61020;-90
2021/10/17 08:18:34;;;;;;;55.50;42.50;;;;;;;9.32;85.18;99533.08;113558;1190;66265;-93
2021/10/17 08:21:01;;;;;;;51.40;41.90;;;;;;;9.43;85.02;99533.50;112981;1184;60937;-90
2021/10/17 08:23:27;;;;;;;50.80;41.10;;;;;;;9.44;84.43;99533.66;113096;1190;62639;-91
2021/10/17 08:25:54;;;;;;;52.30;41.30;;;;;;;9.42;84.24;99534.46;113039;1190;60983;-94
2021/10/17 08:28:22;;;;;;;52.90;41.30;;;;;;;9.47;84.70;99532.78;113151;1191;61098;-95
2021/10/17 08:30:50;;;;;;;54.50;42.50;;;;;;;9.66;84.70;99532.48;113536;1191;66025;-90
2021/10/17 08:33:17;;;;;;;53.50;41.50;;;;;;;9.81;84.29;99535.39;112904;1190;61059;-86
2021/10/17 08:35:45;;;;;;;47.20;37.30;;;;;;;9.88;83.99;99534.77;112635;1190;62658;-90
2021/10/17 08:38:11;;;;;;;45.40;36.70;;;;;;;9.92;84.01;99537.98;113991;1177;61058;-91
2021/10/17 08:40:40;;;;;;;50.10;40.20;;;;;;;9.91;83.98;99535.88;113029;1192;61030;-88
2021/10/17 08:43:07;;;;;;;53.20;40.90;;;;;;;9.94;83.67;99532.86;112770;1191;66977;-90
2021/10/17 08:45:34;;;;;;;54.50;42.50;;;;;;;10.03;84.00;99528.81;113107;1191;61208;-93
2021/10/17 08:48:02;;;;;;;59.10;42.30;;;;;;;10.14;83.84;99528.23;113796;1192;62331;-90
2021/10/17 08:54:39;;;;;;;58.90;45.60;;;;;;;10.36;83.22;99526.63;112957;1194;61302;-92
2021/10/17 08:57:06;;;;;;;58.70;43.80;;;;;;;10.48;82.79;99531.23;112539;1196;65990;-87
2021/10/17 08:59:34;;;;;;;58.10;44.40;;;;;;;10.59;82.39;99524.42;112640;1191;61054;-86
2021/10/17 09:02:12;;;;;;;59.10;44.70;;;;;;;10.65;81.91;99524.02;112711;1190;63763;-87
2021/10/17 09:04:40;;;;;;;57.30;44.20;;;;;;;10.73;81.91;99526.05;112998;1190;60971;-93
2021/10/17 09:07:21;;;;;;;59.20;43.90;;;;;;;10.85;81.85;99524.83;113016;1192;61004;-94
2021/10/17 09:10:06;;;;;;;56.10;38.50;;;;;;;10.93;81.30;99523.27;112919;1192;64709;-93
2021/10/17 09:12:35;;;;;;;52.20;38.60;;;;;;;11.01;80.93;99526.53;112821;1177;61408;-92
2021/10/17 09:15:29;;;;;;;43.20;32.40;;;;;;;11.10;80.47;99521.92;113049;1192;71758;-93
2021/10/17 09:18:14;;;;;;;40.00;30.90;;;;;;;11.14;79.87;99519.91;113150;1192;61052;-92
2021/10/17 09:20:47;;;;;;;42.40;33.10;;;;;;;11.23;79.68;99518.11;113243;1190;61105;-92
2021/10/17 09:23:17;;;;;;;39.10;30.00;;;;;;;11.28;79.58;99519.35;113920;1192;64345;-93
2021/10/17 09:25:43;;;;;;;30.70;23.50;;;;;;;11.36;79.30;99517.14;113002;1193;61026;-94
2021/10/17 09:28:29;;;;;;;21.60;16.60;;;;;;;11.42;78.41;99516.73;112730;1192;62711;-93
2021/10/17 09:31:00;;;;;;;27.50;18.70;;;;;;;11.46;77.07;99515.24;113125;1192;61045;-92
2021/10/17 09:33:27;;;;;;;25.80;19.00;;;;;;;11.41;76.12;99513.73;112897;1192;61062;-94
2021/10/17 09:35:55;;;;;;;12.90;9.10;;;;;;;11.49;76.13;99517.21;112783;1191;64679;-94
2021/10/17 09:38:38;;;;;;;9.40;5.70;;;;;;;11.60;74.35;99514.01;112843;1193;61008;-94
2021/10/17 09:41:32;;;;;;;7.40;5.90;;;;;;;11.65;73.08;99512.98;113039;1192;64009;-93
2021/10/17 09:44:02;;;;;;;9.30;7.60;;;;;;;11.66;72.07;99509.21;112981;1190;61074;-94
2021/10/17 09:46:29;;;;;;;11.50;8.40;;;;;;;11.57;72.07;99516.17;112578;1193;61008;-94
2021/10/17 09:48:56;;;;;;;9.00;7.20;;;;;;;11.49;71.14;99515.42;112704;1192;66085;-92
2021/10/17 09:51:30;;;;;;;6.50;5.70;;;;;;;11.42;70.49;99512.61;112478;1193;60987;-93
2021/10/17 09:53:59;;;;;;;7.30;4.00;;;;;;;11.42;70.33;99513.87;112654;1193;64021;-93
2021/10/17 09:56:32;;;;;;;6.10;3.30;;;;;;;11.47;70.03;99514.98;112515;1193;61137;-92
2021/10/17 09:59:11;;;;;;;5.20;3.30;;;;;;;11.58;69.36;99512.38;112708;1192;61030;-92
2021/10/17 10:01:40;;;;;;;3.80;2.70;;;;;;;11.70;68.16;99509.69;112811;1177;64659;-93
2021/10/17 10:04:12;;;;;;;3.50;3.10;;;;;;;11.82;67.73;99502.51;112698;1192;60981;-93
2021/10/17 10:06:40;;;;;;;4.90;3.10;;;;;;;11.99;67.71;99501.45;113745;1192;62634;-82
2021/10/17 10:09:10;;;;;;;5.20;2.80;;;;;;;12.30;67.87;99497.96;112667;1193;61053;-81
2021/10/17 10:11:38;;;;;;;3.10;2.30;;;;;;;12.67;67.00;99492.82;112688;1192;61081;-81
2021/10/17 10:14:08;;;;;;;3.90;3.00;;;;;;;12.85;66.74;99495.17;112332;1193;66123;-81
2021/10/17 10:16:36;;;;;;;5.90;4.20;;;;;;;12.96;66.11;99493.52;112678;1193;61090;-81
2021/10/17 10:19:08;;;;;;;4.80;3.30;;;;;;;13.01;65.53;99487.11;112634;1192;62956;-81
2021/10/17 10:21:39;;;;;;;6.50;3.60;;;;;;;12.95;64.47;99490.02;112345;1184;61011;-81
2021/10/17 10:24:12;;;;;;;6.90;3.40;;;;;;;12.89;63.79;99493.64;112633;1192;60940;-81
2021/10/17 10:26:43;;;;;;;6.80;3.50;;;;;;;12.90;63.79;99495.02;112566;1192;65685;-81
2021/10/17 10:29:09;;;;;;;6.10;3.80;;;;;;;12.99;63.74;99491.73;112583;1192;61369;-83
2021/10/17 10:31:56;;;;;;;7.20;4.80;;;;;;;13.09;63.60;99490.13;112608;1192;64906;-83
2021/10/17 10:34:22;;;;;;;5.10;4.00;;;;;;;13.07;62.76;99486.38;112667;1193;61065;-82
2021/10/17 10:36:51;;;;;;;5.40;4.40;;;;;;;12.99;62.53;99488.18;112668;1193;60998;-83
2021/10/17 10:39:32;;;;;;;7.50;5.10;;;;;;;12.95;62.62;99485.03;112673;1192;65703;-84
2021/10/17 10:42:03;;;;;;;7.40;5.60;;;;;;;12.90;62.25;99483.92;112656;1192;61384;-85
2021/10/17 10:44:30;;;;;;;7.40;4.60;;;;;;;12.82;60.96;99481.13;112672;1192;63896;-83
2021/10/17 10:46:58;;;;;;;8.30;4.90;;;;;;;12.70;60.94;99479.45;112671;1192;61033;-83
2021/10/17 10:49:46;;;;;;;6.90;4.80;;;;;;;12.59;61.35;99483.21;112439;1192;60934;-84
2021/10/17 10:52:28;;;;;;;8.10;4.80;;;;;;;12.54;61.40;99484.83;112701;1193;64759;-84
2021/10/17 10:54:57;;;;;;;7.00;4.40;;;;;;;12.53;61.25;99482.34;112550;1192;61058;-83
2021/10/17 10:57:26;;;;;;;7.50;5.40;;;;;;;12.59;61.19;99481.80;112458;1193;64157;-82
2021/10/17 10:59:59;;;;;;;6.00;5.10;;;;;;;12.67;61.25;99481.05;112615;1192;61083;-83
2021/10/17 11:02:26;;;;;;;6.90;4.80;;;;;;;12.76;60.93;99482.44;112630;1192;61053;-83
2021/10/17 11:04:53;;;;;;;8.60;4.10;;;;;;;12.76;60.39;99479.92;112613;1192;66048;-83
2021/10/17 11:07:21;;;;;;;10.00;5.10;;;;;;;12.78;60.31;99478.34;112581;1192;61133;-82
2021/10/17 11:09:50;;;;;;;6.80;4.50;;;;;;;12.84;59.75;99476.54;112593;1192;62380;-84
2021/10/17 11:12:39;;;;;;;6.30;4.50;;;;;;;12.79;59.19;99474.40;112619;1191;61061;-83
2021/10/17 11:15:07;;;;;;;7.20;4.20;;;;;;;12.87;59.93;99470.26;112583;1191;61010;-83
2021/10/17 11:17:34;;;;;;;4.90;3.90;;;;;;;12.93;60.20;99469.63;112620;1192;65745;-82
2021/10/17 11:20:05;;;;;;;6.70;4.20;;;;;;;12.85;59.67;99465.20;112611;1192;62383;-82
2021/10/17 11:22:35;;;;;;;5.30;4.00;;;;;;;12.76;59.60;99463.36;112476;1192;63952;-84
2021/10/17 11:25:02;;;;;;;10.00;5.70;;;;;;;12.64;59.22;99459.53;112580;1192;61107;-83